Time;durP1;ratioP1;P1;durP2;ratioP2;P2;SDS_P1;SDS_P2;PMS_P1;PMS_P2;Temp;Humidity;BMP_temperature;BMP_pressure;BME280_temperature;BME280_humidity;BME280_pressure;Samples;Min_cycle;Max_cycle;Signal;HPM_P1;HPM_P2
2022/11/10 00:00:19;;;;;;;26.98;5.57;;;;;;;19.36;100.00;98141.94;5020865;28;20079;-64
2022/11/10 00:02:45;;;;;;;28.90;5.88;;;;;;;18.68;100.00;98146.03;5021495;28;20029;-65
2022/11/10 00:05:10;;;;;;;20.50;5.20;;;;;;;18.59;100.00;98147.50;5021459;28;20018;-65
2022/11/10 00:07:37;;;;;;;20.88;4.70;;;;;;;18.77;100.00;98149.81;5023037;28;20025;-63
2022/11/10 00:10:04;;;;;;;21.77;4.70;;;;;;;18.96;100.00;98150.16;5022062;28;20056;-64
2022/11/10 00:12:30;;;;;;;23.98;4.88;;;;;;;18.55;100.00;98151.34;5021487;28;20399;-64
2022/11/10 00:17:40;;;;;;;23.88;4.75;;;;;;;18.40;100.00;98161.19;5021783;28;20926;-66
2022/11/10 00:20:06;;;;;;;22.83;4.88;;;;;;;18.54;100.00;98154.09;5020513;28;20025;-62
2022/11/10 00:22:33;;;;;;;20.83;4.50;;;;;;;19.04;100.00;98161.03;5021786;28;20040;-64
2022/11/10 00:24:58;;;;;;;29.17;5.38;;;;;;;18.32;100.00;98160.03;5021255;28;20988;-64
2022/11/10 00:27:24;;;;;;;21.15;4.57;;;;;;;18.49;100.00;98162.34;5021367;28;20160;-65
2022/11/10 00:29:49;;;;;;;32.35;5.75;;;;;;;18.46;100.00;98162.56;5020403;28;20025;-62
2022/11/10 00:32:14;;;;;;;23.25;4.97;;;;;;;18.98;100.00;98169.41;5020145;28;20045;-60
2022/11/10 00:34:40;;;;;;;19.80;4.30;;;;;;;18.04;100.00;98170.72;5021905;28;20025;-62
2022/11/10 00:37:05;;;;;;;24.27;4.93;;;;;;;18.42;100.00;98175.13;5021231;28;20695;-62
2022/11/10 00:39:30;;;;;;;18.80;4.45;;;;;;;18.53;100.00;98177.00;5022184;28;20312;-61
2022/11/10 00:41:56;;;;;;;27.40;5.20;;;;;;;18.24;100.00;98173.78;5020230;28;20038;-62
2022/11/10 00:44:22;;;;;;;25.48;4.97;;;;;;;17.96;100.00;98185.38;5021022;28;20028;-62
2022/11/10 00:46:47;;;;;;;21.50;4.35;;;;;;;18.08;100.00;98173.97;5020973;28;20033;-62
2022/11/10 00:49:12;;;;;;;27.77;5.28;;;;;;;18.28;100.00;98181.38;5021021;28;20041;-62
2022/11/10 00:51:38;;;;;;;17.67;4.18;;;;;;;18.37;100.00;98179.03;5020377;28;20064;-61
2022/11/10 00:54:03;;;;;;;16.80;4.10;;;;;;;18.10;100.00;98182.63;5021207;28;20104;-63
2022/11/10 00:56:29;;;;;;;29.63;4.68;;;;;;;18.36;100.00;98194.06;5020920;28;20129;-62
2022/11/10 00:58:54;;;;;;;20.40;4.25;;;;;;;18.59;100.00;98189.78;5021110;28;20152;-64
2022/11/10 01:01:23;;;;;;;28.50;5.25;;;;;;;18.23;100.00;98209.03;5019503;28;20068;-62
2022/11/10 01:03:49;;;;;;;20.88;4.22;;;;;;;18.19;100.00;98202.28;5020271;28;20082;-62
2022/11/10 01:06:16;;;;;;;21.48;4.40;;;;;;;18.65;100.00;98210.47;5020786;28;20463;-61
2022/11/10 01:08:42;;;;;;;24.20;4.38;;;;;;;18.34;100.00;98216.22;5021069;28;20605;-61
2022/11/10 01:11:20;;;;;;;17.45;4.07;;;;;;;18.82;100.00;98219.03;5019630;28;20037;-63
2022/11/10 01:13:46;;;;;;;24.40;4.60;;;;;;;18.75;100.00;98221.25;5020411;28;20052;-62
2022/11/10 01:16:20;;;;;;;28.95;4.93;;;;;;;18.33;100.00;98220.66;5020474;28;20164;-62
2022/11/10 01:18:53;;;;;;;19.77;4.38;;;;;;;18.50;100.00;98222.13;5020985;28;20075;-62
2022/11/10 01:21:19;;;;;;;25.52;4.63;;;;;;;18.74;100.00;98218.72;5019576;28;20033;-62
2022/11/10 01:23:46;;;;;;;27.85;5.28;;;;;;;18.46;100.00;98215.38;5019223;28;20032;-63
2022/11/10 01:26:12;;;;;;;21.60;4.65;;;;;;;18.47;100.00;98224.97;5020511;28;20045;-61
2022/11/10 01:28:38;;;;;;;27.60;5.30;;;;;;;18.44;100.00;98222.56;5020683;28;20112;-62
2022/11/10 01:31:11;;;;;;;24.80;4.80;;;;;;;18.50;100.00;98219.47;5019151;28;20148;-63
2022/11/10 01:33:38;;;;;;;23.48;4.88;;;;;;;18.37;100.00;98224.78;5018727;28;20833;-63
2022/11/10 01:36:05;;;;;;;23.58;5.00;;;;;;;18.55;100.00;98230.56;5020162;28;20034;-61
2022/11/10 01:38:33;;;;;;;20.77;4.35;;;;;;;18.69;100.00;98246.31;5021017;28;20029;-62
2022/11/10 01:40:59;;;;;;;20.55;4.47;;;;;;;18.76;100.00;98244.06;5017963;28;20038;-62
2022/11/10 01:43:26;;;;;;;20.45;4.40;;;;;;;18.34;100.00;98247.91;5019661;28;20053;-62
2022/11/10 01:45:59;;;;;;;20.63;4.70;;;;;;;18.51;100.00;98250.25;5019477;28;20033;-61
2022/11/10 01:48:46;;;;;;;23.10;4.55;;;;;;;18.29;100.00;98246.44;5020614;28;20033;-62
2022/11/10 01:51:36;;;;;;;20.48;4.32;;;;;;;17.90;100.00;98252.59;5019409;28;20045;-63
2022/11/10 01:54:05;;;;;;;25.92;4.85;;;;;;;17.85;100.00;98258.22;5019997;28;20052;-63
2022/11/10 01:56:35;;;;;;;22.15;4.60;;;;;;;17.80;100.00;98264.72;5019443;28;20037;-62
2022/11/10 01:59:05;;;;;;;27.55;6.03;;;;;;;18.14;100.00;98268.63;5020695;28;20032;-62
2022/11/10 02:11:54;;;;;;;116.43;14.98;;;;;;;18.01;100.00;98273.00;6041163;22;20827;-60
2022/11/10 02:29:51;;;;;;;190.57;21.33;;;;;;;17.72;100.00;98275.78;5987167;22;20008;-63
2022/11/10 02:42:45;;;;;;;20.83;4.17;;;;;;;18.35;100.00;98286.59;6106936;22;20009;-58
2022/11/10 03:03:06;;;;;;;24.23;4.55;;;;;;;18.74;100.00;98324.41;4952552;28;20050;-59
2022/11/10 03:05:31;;;;;;;30.25;4.90;;;;;;;18.60;100.00;98327.97;4970545;28;20088;-60
2022/11/10 03:08:01;;;;;;;28.00;5.07;;;;;;;18.06;100.00;98328.97;4988498;28;20114;-63
2022/11/10 03:10:28;;;;;;;28.10;5.15;;;;;;;18.10;100.00;98341.03;4986747;28;20084;-60
2022/11/10 03:12:56;;;;;;;22.65;4.25;;;;;;;17.79;100.00;98340.38;4987056;28;20026;-59
2022/11/10 03:15:22;;;;;;;30.08;5.18;;;;;;;18.55;100.00;98346.81;4983549;28;20680;-60
2022/11/10 03:17:47;;;;;;;26.17;4.90;;;;;;;18.23;100.00;98351.59;4967241;28;20037;-60
2022/11/10 03:20:13;;;;;;;20.80;4.15;;;;;;;18.23;100.00;98351.59;4969030;28;20029;-60
2022/11/10 03:22:38;;;;;;;28.35;5.35;;;;;;;17.60;100.00;98358.34;4966630;28;20011;-60
2022/11/10 03:25:04;;;;;;;27.23;4.78;;;;;;;17.92;100.00;98359.78;4967214;28;20033;-59
2022/11/10 03:27:29;;;;;;;29.50;4.80;;;;;;;18.32;100.00;98366.00;4968294;28;20050;-59
2022/11/10 03:29:55;;;;;;;23.58;4.63;;;;;;;18.13;100.00;98371.66;4968952;28;20031;-59
2022/11/10 03:32:20;;;;;;;21.50;4.60;;;;;;;17.81;100.00;98370.16;4967436;28;20050;-59
2022/11/10 03:34:46;;;;;;;16.92;3.40;;;;;;;18.13;100.00;98367.22;4969560;28;20019;-59
2022/11/10 03:37:11;;;;;;;19.60;3.83;;;;;;;17.60;100.00;98375.00;4966781;28;20063;-59
2022/11/10 03:39:38;;;;;;;28.27;4.35;;;;;;;17.65;100.00;98372.91;4967872;28;20113;-59
2022/11/10 03:42:04;;;;;;;23.92;4.30;;;;;;;17.98;100.00;98374.34;4965398;28;20868;-58
2022/11/10 03:44:29;;;;;;;35.78;4.70;;;;;;;17.31;100.00;98375.06;4970502;28;20522;-59
2022/11/10 03:46:55;;;;;;;21.25;3.90;;;;;;;17.49;100.00;98380.13;4967971;28;20036;-59
2022/11/10 03:49:20;;;;;;;35.10;4.13;;;;;;;17.34;100.00;98387.19;4967086;28;20058;-59
2022/11/10 03:51:45;;;;;;;36.92;4.47;;;;;;;17.34;100.00;98395.09;4968290;28;20070;-61
2022/11/10 03:54:10;;;;;;;17.98;3.70;;;;;;;17.06;100.00;98385.44;4970182;28;20109;-61
2022/11/10 03:56:36;;;;;;;33.35;4.07;;;;;;;17.42;100.00;98397.25;4968254;28;20097;-62
2022/11/10 03:59:01;;;;;;;30.25;4.35;;;;;;;17.27;100.00;98399.91;4976781;28;20085;-62
2022/11/10 04:01:27;;;;;;;19.45;3.65;;;;;;;16.70;100.00;98403.31;4970299;28;20275;-61
2022/11/10 04:03:52;;;;;;;22.70;4.10;;;;;;;16.84;100.00;98406.97;4967077;28;20052;-60
2022/11/10 04:09:03;;;;;;;42.00;5.57;;;;;;;16.39;100.00;98422.72;4967842;28;20122;-60
2022/11/10 04:16:59;;;;;;;60.75;5.57;;;;;;;16.88;100.00;98429.56;4970022;28;20037;-59
2022/11/10 04:19:25;;;;;;;24.73;4.40;;;;;;;16.33;100.00;98431.81;4969699;28;20026;-59
2022/11/10 04:21:51;;;;;;;128.65;6.65;;;;;;;16.02;100.00;98435.34;4967611;28;20106;-60
2022/11/10 04:24:16;;;;;;;86.43;5.55;;;;;;;15.47;100.00;98422.59;4966541;28;20087;-59
2022/11/10 04:26:42;;;;;;;19.67;3.60;;;;;;;16.37;100.00;98430.69;4968013;28;20759;-61
2022/11/10 04:29:10;;;;;;;22.02;4.03;;;;;;;17.01;100.00;98432.31;4967664;28;20030;-60
2022/11/10 04:31:38;;;;;;;25.77;3.90;;;;;;;17.10;100.00;98437.84;4968861;28;20047;-59
2022/11/10 04:34:06;;;;;;;38.50;5.18;;;;;;;15.79;100.00;98444.53;4968030;28;20023;-59
2022/11/10 04:36:34;;;;;;;30.83;4.82;;;;;;;16.26;100.00;98448.06;4970309;28;20054;-64
2022/11/10 04:39:00;;;;;;;18.58;3.45;;;;;;;17.19;100.00;98452.28;4969957;28;20038;-59
2022/11/10 04:41:27;;;;;;;37.00;5.18;;;;;;;16.29;100.00;98448.72;4970781;28;20046;-58
2022/11/10 04:43:52;;;;;;;32.03;3.95;;;;;;;16.24;100.00;98450.78;5003900;28;20059;-59
2022/11/10 04:46:37;;;;;;;28.05;4.30;;;;;;;15.41;100.00;98450.91;4970535;28;20440;-58
2022/11/10 04:49:04;;;;;;;38.83;5.00;;;;;;;15.57;100.00;98456.19;4969910;28;20027;-59
2022/11/10 04:51:32;;;;;;;30.17;4.90;;;;;;;15.60;100.00;98465.69;4969662;28;20046;-59
2022/11/10 04:53:58;;;;;;;23.35;4.13;;;;;;;15.93;100.00;98468.28;4973290;28;20026;-58
2022/11/10 04:56:25;;;;;;;20.95;3.42;;;;;;;16.79;100.00;98466.94;4968766;28;20035;-59
2022/11/10 04:58:51;;;;;;;21.90;3.80;;;;;;;16.19;100.00;98469.47;4970821;28;20061;-58
2022/11/10 05:01:19;;;;;;;24.38;4.15;;;;;;;15.51;100.00;98472.31;4970751;28;20065;-59
2022/11/10 05:03:45;;;;;;;28.00;4.93;;;;;;;14.20;100.00;98476.25;4968989;28;20194;-61
2022/11/10 05:06:11;;;;;;;42.30;5.03;;;;;;;14.45;100.00;98490.81;4971450;28;20043;-58
2022/11/10 05:08:38;;;;;;;28.02;4.40;;;;;;;15.81;100.00;98495.28;4969538;28;20065;-58
2022/11/10 05:11:04;;;;;;;22.88;3.92;;;;;;;15.82;100.00;98485.59;4970085;28;20380;-59
2022/11/10 05:13:29;;;;;;;24.80;3.95;;;;;;;16.86;100.00;98484.13;4971907;28;20019;-61
2022/11/10 05:15:55;;;;;;;26.10;4.00;;;;;;;16.86;100.00;98484.13;4969043;28;20125;-61
2022/11/10 05:18:21;;;;;;;23.15;4.00;;;;;;;16.34;100.00;98486.16;4971315;28;20023;-59
2022/11/10 05:20:46;;;;;;;31.45;5.22;;;;;;;15.72;100.00;98507.09;4970570;28;20038;-61
2022/11/10 05:25:55;;;;;;;31.55;4.80;;;;;;;15.90;100.00;98521.06;4971602;28;20404;-59
2022/11/10 05:28:20;;;;;;;29.23;5.63;;;;;;;14.46;100.00;98521.38;4970543;28;20034;-59
2022/11/10 05:30:46;;;;;;;27.00;4.97;;;;;;;14.75;100.00;98527.84;4972025;28;20564;-61
2022/11/10 05:33:11;;;;;;;20.92;3.97;;;;;;;15.64;100.00;98534.72;4970777;28;20711;-59
2022/11/10 05:35:37;;;;;;;28.33;3.95;;;;;;;15.82;100.00;98543.47;4968043;28;20121;-61
2022/11/10 05:38:03;;;;;;;28.75;4.53;;;;;;;15.89;100.00;98535.16;4969875;28;20038;-60
2022/11/10 05:40:29;;;;;;;21.83;4.53;;;;;;;15.58;100.00;98536.75;4970210;28;20522;-60
2022/11/10 05:42:54;;;;;;;25.60;5.05;;;;;;;14.79;100.00;98542.53;4968804;28;20041;-60
2022/11/10 05:45:22;;;;;;;36.33;4.63;;;;;;;14.89;100.00;98557.84;4970573;28;20025;-60
2022/11/10 05:47:48;;;;;;;89.15;5.55;;;;;;;14.30;100.00;98550.16;4970092;28;20099;-60
2022/11/10 05:50:14;;;;;;;63.42;5.40;;;;;;;14.15;100.00;98561.34;4969057;28;20031;-62
2022/11/10 05:52:42;;;;;;;96.15;6.15;;;;;;;14.04;100.00;98560.09;4970248;28;20129;-59
2022/11/10 05:55:08;;;;;;;24.75;4.20;;;;;;;15.65;100.00;98562.75;4969944;28;20050;-59
2022/11/10 05:57:34;;;;;;;24.88;3.95;;;;;;;16.46;100.00;98554.88;4970195;28;20027;-61
2022/11/10 05:59:59;;;;;;;22.63;3.83;;;;;;;16.66;100.00;98567.75;4968785;28;20082;-56
2022/11/10 06:02:24;;;;;;;29.17;5.00;;;;;;;15.70;100.00;98571.25;4968126;28;20058;-59
2022/11/10 06:04:49;;;;;;;24.58;4.18;;;;;;;15.39;100.00;98583.34;4968473;28;20061;-59
2022/11/10 06:07:15;;;;;;;23.35;4.05;;;;;;;15.78;100.00;98580.44;4971759;28;20142;-59
2022/11/10 06:09:40;;;;;;;21.70;3.90;;;;;;;15.43;100.00;98584.88;4970536;28;20030;-60
2022/11/10 06:12:06;;;;;;;31.92;4.82;;;;;;;15.54;100.00;98579.91;4968524;28;20038;-59
2022/11/10 06:14:31;;;;;;;27.52;5.05;;;;;;;15.13;100.00;98588.16;4970145;28;20363;-59
2022/11/10 06:16:57;;;;;;;21.40;3.95;;;;;;;15.32;100.00;98597.72;4971004;28;20039;-62
2022/11/10 06:19:22;;;;;;;16.75;3.25;;;;;;;15.95;100.00;98603.25;4969668;28;20041;-60
2022/11/10 06:21:47;;;;;;;46.22;4.97;;;;;;;15.28;100.00;98609.34;4967940;28;20027;-59
2022/11/10 06:24:13;;;;;;;17.35;3.53;;;;;;;15.43;100.00;98616.44;4966276;28;20033;-58
2022/11/10 06:26:38;;;;;;;26.92;4.55;;;;;;;15.75;100.00;98627.97;4971052;28;20100;-60
2022/11/10 06:29:04;;;;;;;20.83;3.60;;;;;;;16.13;100.00;98637.38;4970505;28;20038;-59
2022/11/10 06:31:29;;;;;;;26.80;4.88;;;;;;;15.01;100.00;98631.63;4970711;28;20046;-60
2022/11/10 06:33:54;;;;;;;24.13;4.20;;;;;;;15.37;100.00;98643.03;4969367;28;20176;-59
2022/11/10 06:36:20;;;;;;;59.55;18.15;;;;;;;15.36;100.00;98657.09;4968962;28;20039;-59
2022/11/10 06:38:46;;;;;;;57.53;14.32;;;;;;;14.90;100.00;98670.69;4970138;28;20069;-59
2022/11/10 06:41:12;;;;;;;68.25;17.63;;;;;;;14.70;100.00;98666.41;4968216;28;20062;-59
2022/11/10 06:43:37;;;;;;;44.35;10.20;;;;;;;14.90;100.00;98669.84;4967876;28;20405;-59
2022/11/10 06:46:02;;;;;;;38.10;10.15;;;;;;;13.80;100.00;98668.69;4967176;28;20043;-59
2022/11/10 06:48:28;;;;;;;36.90;9.18;;;;;;;13.82;100.00;98679.97;4968511;28;20033;-61
2022/11/10 06:50:53;;;;;;;40.38;9.30;;;;;;;13.42;100.00;98686.94;4968592;28;20144;-59
2022/11/10 06:53:18;;;;;;;31.75;8.30;;;;;;;13.74;100.00;98682.06;4968683;28;20058;-59
2022/11/10 06:55:44;;;;;;;30.50;8.63;;;;;;;14.41;100.00;98694.84;4964885;28;20069;-57
2022/11/10 06:58:10;;;;;;;34.97;9.05;;;;;;;13.32;100.00;98694.28;4967250;28;20034;-58
2022/11/10 07:00:35;;;;;;;37.40;9.23;;;;;;;13.86;100.00;98711.25;4969459;28;20416;-59
2022/11/10 07:03:05;;;;;;;36.60;9.48;;;;;;;14.63;100.00;98709.63;4967856;28;20023;-58
2022/11/10 07:05:33;;;;;;;433.80;29.75;;;;;;;14.55;100.00;98711.72;4967430;28;20070;-58
2022/11/10 07:08:05;;;;;;;1999.90;162.57;;;;;;;15.77;100.00;98712.06;4967404;28;20113;-58
2022/11/10 07:10:30;;;;;;;1999.90;268.63;;;;;;;15.91;100.00;98722.69;4970023;28;20037;-58
2022/11/10 07:13:00;;;;;;;1999.90;404.77;;;;;;;17.40;100.00;98731.41;4969429;28;20030;-58
2022/11/10 07:15:26;;;;;;;1999.90;451.75;;;;;;;17.92;100.00;98729.25;4965962;28;20034;-58
2022/11/10 07:17:51;;;;;;;1999.90;591.10;;;;;;;17.74;100.00;98730.31;4966270;28;20026;-59
2022/11/10 07:20:17;;;;;;;1999.90;142.93;;;;;;;17.28;100.00;98725.06;4966938;28;20066;-58
2022/11/10 07:22:42;;;;;;;151.32;14.55;;;;;;;16.66;100.00;98731.06;4966743;28;20058;-59
2022/11/10 07:25:08;;;;;;;35.95;9.23;;;;;;;16.52;100.00;98736.22;4968473;28;20045;-58
2022/11/10 07:27:33;;;;;;;791.38;48.22;;;;;;;17.47;100.00;98744.16;4986662;28;20064;-60
2022/11/10 07:29:58;;;;;;;310.85;23.65;;;;;;;18.56;100.00;98744.75;4987119;28;20030;-59
2022/11/10 07:32:23;;;;;;;39.08;9.55;;;;;;;19.44;100.00;98757.72;4989479;28;20034;-58
2022/11/10 07:34:49;;;;;;;29.83;7.80;;;;;;;19.28;100.00;98752.63;4988715;28;20022;-58
2022/11/10 07:37:14;;;;;;;23.80;7.18;;;;;;;18.64;100.00;98761.00;4987340;28;20526;-58
2022/11/10 07:39:39;;;;;;;23.80;6.72;;;;;;;18.85;100.00;98764.09;4986938;28;20816;-58
2022/11/10 07:42:05;;;;;;;26.75;6.65;;;;;;;17.82;100.00;98759.72;4984387;28;20035;-58
2022/11/10 07:44:30;;;;;;;25.83;6.90;;;;;;;17.80;100.00;98751.03;4986134;28;20076;-58
2022/11/10 07:46:56;;;;;;;22.60;6.25;;;;;;;17.53;100.00;98759.63;4985834;28;20053;-58
2022/11/10 07:49:22;;;;;;;23.23;6.90;;;;;;;18.19;100.00;98762.84;4987493;28;20060;-58
2022/11/10 07:51:47;;;;;;;28.65;7.47;;;;;;;17.51;100.00;98772.03;4988099;28;20120;-58
2022/11/10 07:54:12;;;;;;;25.58;7.25;;;;;;;17.32;100.00;98777.50;4986833;28;20640;-58
2022/11/10 07:56:38;;;;;;;28.95;7.05;;;;;;;17.02;100.00;98780.09;4986459;28;20038;-58
2022/11/10 07:59:03;;;;;;;26.58;6.82;;;;;;;16.86;100.00;98795.03;4987509;28;20030;-59
2022/11/10 08:01:28;;;;;;;25.25;6.38;;;;;;;17.20;100.00;98795.81;4986913;28;20039;-58
2022/11/10 08:03:54;;;;;;;27.10;6.40;;;;;;;17.33;100.00;98796.81;4986900;28;20066;-57
2022/11/10 08:06:19;;;;;;;24.73;6.15;;;;;;;17.72;100.00;98808.72;4989525;28;20419;-58
2022/11/10 08:08:46;;;;;;;26.70;6.10;;;;;;;18.43;100.00;98823.91;4985818;28;20025;-60
2022/11/10 08:11:11;;;;;;;23.77;6.00;;;;;;;17.99;100.00;98818.63;4993406;28;20684;-58
2022/11/10 08:13:38;;;;;;;24.27;5.97;;;;;;;17.56;100.00;98821.91;4992059;28;20812;-59
2022/11/10 08:16:03;;;;;;;32.60;5.85;;;;;;;19.54;100.00;98832.09;4990803;28;20042;-59
2022/11/10 08:18:29;;;;;;;31.80;6.72;;;;;;;18.57;100.00;98828.38;4992554;28;20030;-59
2022/11/10 08:20:54;;;;;;;33.67;6.93;;;;;;;18.55;100.00;98839.97;4991055;28;20033;-60
2022/11/10 08:23:19;;;;;;;25.77;6.13;;;;;;;18.53;100.00;98844.47;4990193;28;20022;-60
2022/11/10 08:25:46;;;;;;;27.60;7.97;;;;;;;18.19;100.00;98842.06;4990406;28;20543;-60
2022/11/10 08:28:14;;;;;;;27.38;8.10;;;;;;;18.66;100.00;98851.59;4990889;28;20025;-58
2022/11/10 08:30:41;;;;;;;36.38;9.25;;;;;;;18.45;100.00;98859.03;4987983;28;20030;-59
2022/11/10 08:33:09;;;;;;;27.15;7.57;;;;;;;18.50;100.00;98866.66;4988891;28;20042;-58
2022/11/10 08:35:37;;;;;;;30.92;7.88;;;;;;;18.53;100.00;98876.19;4989369;28;20083;-58
2022/11/10 08:38:15;;;;;;;33.75;7.50;;;;;;;18.27;100.00;98876.81;4991754;28;20026;-59
2022/11/10 08:40:40;;;;;;;24.20;6.70;;;;;;;18.59;100.00;98866.09;4990787;28;20127;-58
2022/11/10 08:43:07;;;;;;;29.05;7.28;;;;;;;18.53;100.00;98870.91;4991293;28;20166;-58
2022/11/10 08:45:36;;;;;;;28.35;7.70;;;;;;;18.28;100.00;98870.56;4989690;28;20042;-60
2022/11/10 08:48:04;;;;;;;30.52;7.20;;;;;;;18.69;100.00;98872.56;4990014;28;20030;-58
2022/11/10 08:50:30;;;;;;;24.80;6.78;;;;;;;18.96;100.00;98882.41;4988773;28;20116;-58
2022/11/10 08:52:56;;;;;;;24.30;7.07;;;;;;;18.72;100.00;98881.22;4990031;28;20694;-58
2022/11/10 08:55:21;;;;;;;28.20;7.65;;;;;;;18.74;100.00;98877.53;4989243;28;20105;-58
2022/11/10 08:57:47;;;;;;;33.60;8.50;;;;;;;18.74;100.00;98887.28;4988899;28;20034;-59
2022/11/10 09:00:14;;;;;;;32.67;7.70;;;;;;;18.22;100.00;98886.78;4989411;28;20049;-58
2022/11/10 09:02:40;;;;;;;34.22;7.95;;;;;;;17.98;100.00;98886.41;4990542;28;20065;-58
2022/11/10 09:05:06;;;;;;;27.40;7.80;;;;;;;17.97;100.00;98884.69;4991695;28;20468;-58
2022/11/10 09:07:41;;;;;;;35.75;8.57;;;;;;;18.40;100.00;98884.00;4989163;28;20286;-58
2022/11/10 09:10:06;;;;;;;29.42;8.65;;;;;;;18.04;100.00;98885.19;4988591;28;20022;-58
2022/11/10 09:12:32;;;;;;;28.88;8.10;;;;;;;18.69;100.00;98893.69;4986092;28;20154;-58
2022/11/10 09:15:00;;;;;;;30.45;9.13;;;;;;;18.25;100.00;98894.53;4992292;28;20022;-58
2022/11/10 09:17:25;;;;;;;40.55;9.27;;;;;;;18.81;100.00;98896.56;4988228;28;20068;-59
2022/11/10 09:19:50;;;;;;;43.15;10.40;;;;;;;18.77;100.00;98901.16;4989921;28;20062;-58
2022/11/10 09:22:16;;;;;;;31.17;9.80;;;;;;;18.52;100.00;98906.19;4986031;28;20121;-58
2022/11/10 09:24:41;;;;;;;31.60;9.70;;;;;;;18.49;100.00;98913.38;4988757;28;20030;-58
2022/11/10 09:27:06;;;;;;;33.97;9.65;;;;;;;18.73;100.00;98922.56;4987342;28;20042;-60
2022/11/10 09:29:32;;;;;;;30.55;9.15;;;;;;;19.07;100.00;98930.19;4988988;28;20033;-58
2022/11/10 09:31:57;;;;;;;34.80;9.63;;;;;;;18.80;100.00;98935.34;4989080;28;20038;-58
2022/11/10 09:34:22;;;;;;;26.27;8.90;;;;;;;18.74;100.00;98948.06;4989489;28;20160;-59
2022/11/10 09:36:48;;;;;;;35.63;9.95;;;;;;;18.92;100.00;98956.72;4987911;28;20038;-58
2022/11/10 09:39:14;;;;;;;32.90;9.50;;;;;;;18.95;100.00;98967.09;4987566;28;20134;-58
2022/11/10 09:41:42;;;;;;;31.13;9.40;;;;;;;19.09;100.00;98974.19;4989845;28;20041;-60
2022/11/10 09:44:20;;;;;;;33.45;9.07;;;;;;;19.61;100.00;98976.28;4988784;28;20029;-59
2022/11/10 09:46:58;;;;;;;25.77;8.15;;;;;;;20.22;100.00;98983.00;4988145;28;20065;-60
2022/11/10 09:49:40;;;;;;;38.85;8.57;;;;;;;19.30;100.00;98982.63;4989839;28;20110;-59
2022/11/10 09:52:07;;;;;;;32.25;8.75;;;;;;;18.75;100.00;98990.25;4985883;28;20132;-60
2022/11/10 09:55:03;;;;;;;29.77;8.57;;;;;;;19.64;100.00;98997.25;4988309;28;20022;-59
2022/11/10 09:57:29;;;;;;;31.95;9.02;;;;;;;18.56;100.00;98987.81;4989179;28;20382;-60
2022/11/10 09:59:55;;;;;;;31.60;9.35;;;;;;;19.12;100.00;98980.16;4989216;28;20717;-58
2022/11/10 10:02:54;;;;;;;32.45;8.88;;;;;;;18.95;100.00;98989.09;4988003;28;20729;-59
2022/11/10 10:05:47;;;;;;;35.40;9.43;;;;;;;18.78;100.00;98983.94;4953968;28;20565;-58
2022/11/10 10:08:25;;;;;;;36.72;9.80;;;;;;;19.22;100.00;98980.44;4988268;28;20042;-59
2022/11/10 10:10:58;;;;;;;31.58;8.20;;;;;;;18.36;100.00;98980.19;4989748;28;20088;-58
2022/11/10 10:13:42;;;;;;;32.03;8.20;;;;;;;18.85;100.00;98980.00;4988142;28;20022;-59
2022/11/10 10:16:27;;;;;;;25.52;6.93;;;;;;;19.51;100.00;98980.44;4989189;28;20038;-59
2022/11/10 10:19:22;;;;;;;25.05;7.00;;;;;;;19.82;100.00;98982.91;4988398;28;20130;-59
2022/11/10 10:22:25;;;;;;;26.23;6.90;;;;;;;18.78;100.00;98981.28;4941235;28;20042;-60
2022/11/10 10:24:55;;;;;;;29.00;7.20;;;;;;;19.67;100.00;98986.50;4970024;28;20027;-58
2022/11/10 10:27:24;;;;;;;28.27;7.05;;;;;;;19.19;100.00;98988.59;4986336;28;20136;-59
2022/11/10 10:29:50;;;;;;;28.70;7.32;;;;;;;19.67;100.00;98989.13;4987563;28;20065;-59
2022/11/10 10:32:17;;;;;;;33.72;7.97;;;;;;;19.19;100.00;98992.06;4985214;28;20066;-59
2022/11/10 10:34:44;;;;;;;34.72;7.63;;;;;;;20.41;100.00;98997.69;4988315;28;20034;-59
2022/11/10 10:37:34;;;;;;;29.58;7.05;;;;;;;18.93;100.00;98987.47;4991166;28;20547;-60
2022/11/10 10:39:59;;;;;;;29.23;7.05;;;;;;;19.33;100.00;98991.22;4987674;28;20053;-58
2022/11/10 10:42:29;;;;;;;28.95;6.78;;;;;;;19.94;100.00;99004.25;4988200;28;20078;-58
2022/11/10 10:45:13;;;;;;;28.25;6.60;;;;;;;20.45;100.00;98999.19;4988057;28;20021;-60
2022/11/10 10:47:39;;;;;;;27.35;7.38;;;;;;;20.45;100.00;98998.34;4975806;28;20048;-59
2022/11/10 10:50:23;;;;;;;28.10;6.78;;;;;;;19.18;100.00;98989.50;4974208;28;20098;-60
2022/11/10 10:53:11;;;;;;;32.15;7.30;;;;;;;19.50;100.00;98994.63;4966646;28;20113;-59
2022/11/10 10:55:37;;;;;;;26.58;6.30;;;;;;;19.90;100.00;98993.00;4970692;28;20085;-59
2022/11/10 10:58:22;;;;;;;26.98;6.38;;;;;;;19.77;100.00;98990.28;4966610;28;20483;-60
2022/11/10 11:00:52;;;;;;;30.30;6.88;;;;;;;19.24;100.00;98976.78;4968432;28;20066;-61
2022/11/10 11:03:30;;;;;;;24.80;5.93;;;;;;;20.17;100.00;98984.25;4968995;28;20114;-59
2022/11/10 11:06:00;;;;;;;29.20;6.88;;;;;;;19.03;100.00;98980.72;4970102;28;20619;-59
2022/11/10 11:08:26;;;;;;;24.63;6.63;;;;;;;20.11;100.00;98987.31;4967112;28;20018;-58
2022/11/10 11:10:51;;;;;;;28.52;7.15;;;;;;;20.00;100.00;98985.34;4966051;28;20039;-59
2022/11/10 11:13:26;;;;;;;28.02;7.03;;;;;;;20.56;100.00;98975.47;4969653;28;20115;-59
2022/11/10 11:16:07;;;;;;;31.90;6.97;;;;;;;21.09;100.00;98979.94;4969584;28;20037;-59
2022/11/10 11:18:37;;;;;;;27.55;6.72;;;;;;;20.28;100.00;98983.56;4967279;28;20026;-60
2022/11/10 11:21:41;;;;;;;29.70;6.80;;;;;;;19.95;100.00;98984.78;4967215;28;20638;-61
2022/11/10 11:24:33;;;;;;;31.52;6.90;;;;;;;20.45;100.00;98993.03;4966165;28;20089;-58
2022/11/10 11:27:04;;;;;;;32.10;6.43;;;;;;;20.56;100.00;99001.97;4967748;28;20134;-60
2022/11/10 11:29:52;;;;;;;26.02;6.75;;;;;;;20.38;100.00;98992.56;4969256;28;20547;-59
2022/11/10 11:32:46;;;;;;;29.88;7.18;;;;;;;20.35;100.00;98990.16;4966668;28;20042;-59
2022/11/10 11:35:26;;;;;;;32.03;7.15;;;;;;;20.21;100.00;98981.28;4966379;28;20509;-60
2022/11/10 11:38:07;;;;;;;25.80;5.88;;;;;;;21.36;100.00;98980.66;4966392;28;20053;-59
2022/11/10 11:40:45;;;;;;;24.67;6.28;;;;;;;21.82;100.00;98976.59;4968601;28;20555;-59
2022/11/10 11:43:49;;;;;;;21.77;5.28;;;;;;;20.27;100.00;98968.59;4969100;28;20551;-60
2022/11/10 11:46:30;;;;;;;31.02;6.25;;;;;;;19.90;100.00;98984.22;4972502;28;20070;-58
2022/11/10 11:49:16;;;;;;;21.97;5.33;;;;;;;20.52;100.00;98976.63;4971267;28;20030;-58
2022/11/10 11:52:02;;;;;;;25.65;5.57;;;;;;;19.94;100.00;98977.75;4969850;28;20306;-58
2022/11/10 11:54:36;;;;;;;34.10;7.80;;;;;;;20.11;100.00;98985.50;4969511;28;20030;-59
2022/11/10 11:57:33;;;;;;;26.60;5.95;;;;;;;19.52;100.00;98979.50;4969979;28;20065;-58
2022/11/10 12:00:14;;;;;;;24.95;5.63;;;;;;;19.95;100.00;98979.47;4973920;28;20037;-59
2022/11/10 12:02:46;;;;;;;26.10;5.85;;;;;;;19.77;100.00;98981.50;4989617;28;20334;-59
2022/11/10 12:05:41;;;;;;;22.63;5.05;;;;;;;21.01;100.00;98984.91;4991248;28;20026;-58
2022/11/10 12:08:38;;;;;;;25.48;5.20;;;;;;;19.74;100.00;98981.69;4990311;28;20070;-60
2022/11/10 12:11:22;;;;;;;25.38;4.90;;;;;;;19.80;100.00;98976.84;4990524;28;20110;-59
2022/11/10 12:14:05;;;;;;;31.15;6.07;;;;;;;20.59;100.00;98977.06;4990602;28;20026;-59
2022/11/10 12:16:33;;;;;;;21.75;5.10;;;;;;;20.66;100.00;98985.47;4989080;28;20085;-59
2022/11/10 12:19:30;;;;;;;26.88;5.20;;;;;;;21.11;100.00;98975.38;4991400;28;20030;-59
2022/11/10 12:22:11;;;;;;;27.02;5.93;;;;;;;20.68;100.00;98983.59;4990451;28;20045;-58
2022/11/10 12:24:50;;;;;;;24.73;5.30;;;;;;;21.33;100.00;98986.19;4990691;28;20469;-58
2022/11/10 12:28:20;;;;;;;18.75;4.28;;;;;;;21.90;98.99;98973.38;4990009;28;20494;-58
2022/11/10 12:30:49;;;;;;;30.98;6.13;;;;;;;21.42;98.38;98978.56;4921209;29;20580;-58
2022/11/10 12:33:35;;;;;;;21.05;4.65;;;;;;;20.70;100.00;98963.97;4976052;28;20579;-59
2022/11/10 12:36:06;;;;;;;27.02;5.28;;;;;;;20.55;100.00;98960.53;4990872;28;20030;-58